createdAt,value
2022-08-26T00:01:29.184Z,22.10
2022-08-26T00:03:58.277Z,22.00
2022-08-26T00:06:25.830Z,22.00
2022-08-26T00:08:52.905Z,22.00
2022-08-26T00:11:26.388Z,22.00
2022-08-26T00:13:53.912Z,22.00
2022-08-26T00:16:20.770Z,21.90
2022-08-26T00:18:47.590Z,21.90
2022-08-26T00:21:15.819Z,21.90
2022-08-26T00:23:42.892Z,22.00
2022-08-26T00:26:09.652Z,22.00
2022-08-26T00:28:37.993Z,21.90
2022-08-26T00:31:07.757Z,21.90
2022-08-26T00:33:38.192Z,21.90
2022-08-26T00:36:05.695Z,21.90
2022-08-26T00:38:34.987Z,21.90
2022-08-26T00:41:05.729Z,21.90
2022-08-26T00:43:47.144Z,21.80
2022-08-26T00:46:18.907Z,21.70
2022-08-26T00:48:49.239Z,21.70
2022-08-26T00:51:18.974Z,21.70
2022-08-26T00:53:50.631Z,21.70
2022-08-26T00:56:27.655Z,21.70
2022-08-26T00:58:58.425Z,21.70
2022-08-26T01:01:25.666Z,21.70
2022-08-26T01:03:53.545Z,21.70
2022-08-26T01:06:23.264Z,21.60
2022-08-26T01:08:52.022Z,21.60
2022-08-26T01:11:19.501Z,21.60
2022-08-26T01:13:46.709Z,21.60
2022-08-26T01:16:15.359Z,21.60
2022-08-26T01:18:43.903Z,21.60
2022-08-26T01:21:17.713Z,21.60
2022-08-26T01:23:49.423Z,21.60
2022-08-26T01:26:20.024Z,21.60
2022-08-26T01:28:51.468Z,21.50
2022-08-26T01:31:25.432Z,21.60
2022-08-26T01:34:00.585Z,21.60
2022-08-26T01:36:27.509Z,21.30
2022-08-26T01:38:55.729Z,21.30
2022-08-26T01:41:27.206Z,21.40
2022-08-26T01:43:57.952Z,21.40
2022-08-26T01:46:27.951Z,21.40
2022-08-26T01:48:58.614Z,21.50
2022-08-26T01:51:26.973Z,21.50
2022-08-26T01:53:55.529Z,21.50
2022-08-26T01:56:23.606Z,21.40
2022-08-26T01:58:54.108Z,21.40
2022-08-26T02:01:22.303Z,21.40
2022-08-26T02:03:58.226Z,21.40
2022-08-26T02:06:25.132Z,21.40
2022-08-26T02:08:56.134Z,21.30
2022-08-26T02:11:23.046Z,21.40
2022-08-26T02:13:54.481Z,21.30
2022-08-26T02:16:24.459Z,21.40
2022-08-26T02:18:53.511Z,21.30
2022-08-26T02:21:20.652Z,21.30
2022-08-26T02:23:47.553Z,21.30
2022-08-26T02:26:19.353Z,21.30
2022-08-26T02:28:55.575Z,21.30
2022-08-26T02:31:22.705Z,21.40
2022-08-26T02:33:49.638Z,21.30
2022-08-26T02:36:19.865Z,21.30
2022-08-26T02:38:46.883Z,21.30
2022-08-26T02:41:16.168Z,21.30
2022-08-26T02:43:44.957Z,21.10
2022-08-26T02:46:11.805Z,21.10
2022-08-26T02:48:48.200Z,21.10
2022-08-26T02:51:15.431Z,21.10
2022-08-26T02:53:42.183Z,21.10
2022-08-26T02:56:09.827Z,21.10
2022-08-26T02:58:37.971Z,21.10
2022-08-26T03:01:05.408Z,21.10
2022-08-26T03:03:33.533Z,21.10
2022-08-26T03:06:00.354Z,21.10
2022-08-26T03:08:27.134Z,21.00
2022-08-26T03:10:54.170Z,21.00
2022-08-26T03:13:20.962Z,21.00
2022-08-26T03:15:49.182Z,20.90
2022-08-26T03:18:16.019Z,20.70
2022-08-26T03:20:42.794Z,20.70
2022-08-26T03:23:10.940Z,20.70
2022-08-26T03:25:37.737Z,20.90
2022-08-26T03:28:04.897Z,20.90
2022-08-26T03:30:31.722Z,20.90
2022-08-26T03:33:01.477Z,20.90
2022-08-26T03:35:29.818Z,20.90
2022-08-26T03:37:56.574Z,20.90
2022-08-26T03:40:24.305Z,20.90
2022-08-26T03:42:55.922Z,20.90
2022-08-26T03:45:22.752Z,20.90
2022-08-26T03:47:49.528Z,20.80
2022-08-26T03:50:22.934Z,20.80
2022-08-26T03:52:52.902Z,20.60
2022-08-26T03:55:23.626Z,20.70
2022-08-26T03:57:50.737Z,20.70
2022-08-26T04:00:19.075Z,20.80
2022-08-26T04:02:47.657Z,20.70
2022-08-26T04:05:18.372Z,20.70
2022-08-26T04:07:45.777Z,20.70
2022-08-26T04:10:14.970Z,20.70
2022-08-26T04:12:46.172Z,20.70
2022-08-26T04:15:16.336Z,20.70
2022-08-26T04:17:45.268Z,20.70
2022-08-26T04:20:12.997Z,20.60
2022-08-26T04:22:44.782Z,20.60
2022-08-26T04:25:12.418Z,20.60
2022-08-26T04:27:39.240Z,20.60
2022-08-26T04:30:08.919Z,20.60
2022-08-26T04:32:36.671Z,20.60
2022-08-26T04:35:04.605Z,20.60
2022-08-26T04:37:31.974Z,20.60
2022-08-26T04:40:01.095Z,20.50
2022-08-26T04:42:28.078Z,20.50
2022-08-26T04:44:54.957Z,20.50
2022-08-26T04:47:21.763Z,20.40
2022-08-26T04:49:48.501Z,20.40
2022-08-26T04:52:15.284Z,20.50
2022-08-26T04:54:42.959Z,20.50
2022-08-26T04:57:12.159Z,20.50
2022-08-26T04:59:44.886Z,20.50
2022-08-26T05:02:12.966Z,20.50
2022-08-26T05:04:39.790Z,20.50
2022-08-26T05:07:07.408Z,20.50
2022-08-26T05:09:34.386Z,20.50
2022-08-26T05:12:01.819Z,20.50
2022-08-26T05:14:32.211Z,20.50
2022-08-26T05:17:00.721Z,20.50
2022-08-26T05:19:29.519Z,20.50
2022-08-26T05:21:56.258Z,20.50
2022-08-26T05:24:23.210Z,20.50
2022-08-26T05:26:49.998Z,20.50
2022-08-26T05:29:16.960Z,20.50
2022-08-26T05:31:45.282Z,20.50
2022-08-26T05:34:12.025Z,20.40
2022-08-26T05:36:39.018Z,20.50
2022-08-26T05:39:06.569Z,20.50
2022-08-26T05:41:36.422Z,20.50
2022-08-26T05:44:05.472Z,20.60
2022-08-26T05:46:33.092Z,20.60
2022-08-26T05:49:04.689Z,20.60
2022-08-26T05:51:34.181Z,20.60
2022-08-26T05:54:02.476Z,20.60
2022-08-26T05:56:30.635Z,20.60
2022-08-26T05:58:58.594Z,20.60
2022-08-26T06:01:28.244Z,20.70
2022-08-26T06:04:02.153Z,20.70
2022-08-26T06:06:30.606Z,20.70
2022-08-26T06:08:59.034Z,20.70
2022-08-26T06:11:27.747Z,20.70
2022-08-26T06:13:58.919Z,20.80
2022-08-26T06:16:28.984Z,20.70
2022-08-26T06:18:55.899Z,20.80
2022-08-26T06:21:26.481Z,20.80
2022-08-26T06:23:56.990Z,20.80
2022-08-26T06:26:25.938Z,20.90
2022-08-26T06:28:52.922Z,20.90
2022-08-26T06:31:19.975Z,21.00
2022-08-26T06:33:46.923Z,21.00
2022-08-26T06:36:17.439Z,21.00
2022-08-26T06:38:47.610Z,21.10
2022-08-26T06:41:14.859Z,21.10
2022-08-26T06:43:41.638Z,21.10
2022-08-26T06:46:10.945Z,21.20
2022-08-26T06:48:39.214Z,21.20
2022-08-26T06:51:08.343Z,21.20
2022-08-26T06:53:35.319Z,21.30
2022-08-26T06:56:05.740Z,21.30
2022-08-26T06:58:33.009Z,21.30
2022-08-26T07:01:03.707Z,21.40
2022-08-26T07:03:39.791Z,21.50
2022-08-26T07:06:07.584Z,21.50
2022-08-26T07:08:34.319Z,21.50
2022-08-26T07:11:05.898Z,21.50
2022-08-26T07:13:32.779Z,21.50
2022-08-26T07:16:02.900Z,21.60
2022-08-26T07:18:30.042Z,21.50
2022-08-26T07:20:56.901Z,21.60
2022-08-26T07:23:23.705Z,21.60
2022-08-26T07:25:51.268Z,21.60
2022-08-26T07:28:19.431Z,21.70
2022-08-26T07:30:46.228Z,21.70
2022-08-26T07:33:13.146Z,21.70
2022-08-26T07:35:39.913Z,21.70
2022-08-26T07:38:07.050Z,21.70
2022-08-26T07:40:34.041Z,21.70
2022-08-26T07:43:01.011Z,21.70
2022-08-26T07:45:29.523Z,21.80
2022-08-26T07:47:56.501Z,21.80
2022-08-26T07:50:23.808Z,21.80
2022-08-26T07:53:10.601Z,21.80
2022-08-26T07:55:37.862Z,21.90
2022-08-26T07:58:05.200Z,21.90
2022-08-26T08:00:33.892Z,21.90
2022-08-26T08:03:01.176Z,21.90
2022-08-26T08:05:33.472Z,21.90
2022-08-26T08:08:27.010Z,21.90
2022-08-26T08:10:49.600Z,21.90
2022-08-26T08:13:16.677Z,22.00
2022-08-26T08:15:46.998Z,22.00
2022-08-26T08:18:17.115Z,22.00
2022-08-26T08:20:47.626Z,22.00
2022-08-26T08:23:21.598Z,22.00
2022-08-26T08:25:50.919Z,22.00
2022-08-26T08:28:17.709Z,22.00
2022-08-26T08:30:45.865Z,22.00
2022-08-26T08:33:12.617Z,22.00
2022-08-26T08:35:40.031Z,22.10
2022-08-26T08:38:06.854Z,22.10
2022-08-26T08:40:33.832Z,22.10
2022-08-26T08:43:05.194Z,22.10
2022-08-26T08:45:37.000Z,22.10
2022-08-26T08:48:13.230Z,22.20
2022-08-26T08:50:44.171Z,22.20
2022-08-26T08:53:16.134Z,22.20
2022-08-26T08:55:59.338Z,22.20
2022-08-26T08:58:35.517Z,22.20
2022-08-26T09:01:08.296Z,22.20
2022-08-26T09:03:45.577Z,22.20
2022-08-26T09:06:13.139Z,22.20
2022-08-26T09:08:40.039Z,22.20
2022-08-26T09:11:08.166Z,22.20
2022-08-26T09:13:38.202Z,22.20
2022-08-26T09:16:13.094Z,22.20
2022-08-26T09:18:58.845Z,22.30
2022-08-26T09:21:26.489Z,22.30
2022-08-26T09:23:55.661Z,22.30
2022-08-26T09:26:29.107Z,22.30
2022-08-26T09:28:58.112Z,22.30
2022-08-26T09:31:27.680Z,22.40
2022-08-26T09:34:11.600Z,22.40
2022-08-26T09:36:41.386Z,22.40
2022-08-26T09:39:28.109Z,22.40
2022-08-26T09:42:04.590Z,22.50
2022-08-26T09:44:32.181Z,22.50
2022-08-26T09:47:04.150Z,22.50
2022-08-26T09:49:36.318Z,22.50
2022-08-26T09:52:14.379Z,22.60
2022-08-26T09:54:43.210Z,22.70
2022-08-26T09:57:24.712Z,22.70
2022-08-26T09:59:51.675Z,22.80
2022-08-26T10:02:38.728Z,22.80
2022-08-26T10:05:09.939Z,22.90
2022-08-26T10:07:43.524Z,22.90
2022-08-26T10:10:15.572Z,23.00
2022-08-26T10:12:50.381Z,23.00
2022-08-26T10:15:19.854Z,23.00
2022-08-26T10:17:55.448Z,23.00
2022-08-26T10:20:27.321Z,23.10
2022-08-26T10:22:59.653Z,23.10
2022-08-26T10:25:31.093Z,23.10
2022-08-26T10:28:06.126Z,23.10
2022-08-26T10:30:37.698Z,23.10
2022-08-26T10:33:07.417Z,23.10
2022-08-26T10:35:40.096Z,23.10
2022-08-26T10:38:11.759Z,23.10
2022-08-26T10:40:49.883Z,23.10
2022-08-26T10:43:21.716Z,23.20
2022-08-26T10:45:51.149Z,23.20
2022-08-26T10:48:24.350Z,23.20
2022-08-26T10:50:52.787Z,23.20
2022-08-26T10:53:28.548Z,23.20
2022-08-26T10:56:06.277Z,23.20
2022-08-26T10:58:55.822Z,23.30
2022-08-26T11:01:29.440Z,23.30
2022-08-26T11:04:06.829Z,23.30
2022-08-26T11:06:37.147Z,23.30
2022-08-26T11:09:06.328Z,23.40
2022-08-26T11:11:48.406Z,23.40
2022-08-26T11:14:44.639Z,23.40
2022-08-26T11:17:57.293Z,23.50
2022-08-26T11:20:36.721Z,23.50
2022-08-26T11:23:44.680Z,23.50
2022-08-26T11:26:35.638Z,23.50
2022-08-26T11:29:04.652Z,23.50
2022-08-26T11:31:55.447Z,23.50
2022-08-26T11:34:57.707Z,23.50
2022-08-26T11:37:32.313Z,23.50
2022-08-26T11:40:01.498Z,23.60
2022-08-26T11:42:35.583Z,23.60
2022-08-26T11:45:12.932Z,23.60
2022-08-26T11:47:39.766Z,23.60
2022-08-26T11:50:10.619Z,23.60
2022-08-26T11:52:37.682Z,23.60
2022-08-26T11:55:07.554Z,23.60
2022-08-26T11:57:40.489Z,23.60
2022-08-26T12:00:10.647Z,23.60
2022-08-26T12:02:40.654Z,23.70
2022-08-26T12:05:09.182Z,23.70
2022-08-26T12:07:35.970Z,23.70
2022-08-26T12:10:05.855Z,23.70
2022-08-26T12:12:36.115Z,23.70
2022-08-26T12:15:09.008Z,23.70
2022-08-26T12:17:36.390Z,23.70
2022-08-26T12:20:05.310Z,23.80
2022-08-26T12:22:34.261Z,23.80
2022-08-26T12:25:04.714Z,23.80
2022-08-26T12:27:33.252Z,23.90
2022-08-26T12:30:06.902Z,23.90
2022-08-26T12:32:36.390Z,23.90
2022-08-26T12:37:42.676Z,24.00
2022-08-26T12:40:34.881Z,24.00
2022-08-26T12:43:04.123Z,24.00
2022-08-26T12:45:32.903Z,24.10
2022-08-26T12:48:02.421Z,24.10
2022-08-26T12:50:32.344Z,24.10
2022-08-26T12:53:03.297Z,24.20
2022-08-26T12:55:39.966Z,24.20
2022-08-26T12:58:21.625Z,24.20
2022-08-26T13:00:49.638Z,24.20
2022-08-26T13:03:46.802Z,24.30
2022-08-26T13:06:25.641Z,24.30
2022-08-26T13:08:55.453Z,24.40
2022-08-26T13:11:25.037Z,24.40
2022-08-26T13:13:55.125Z,24.40
2022-08-26T13:16:24.521Z,24.40
2022-08-26T13:18:53.614Z,24.40
2022-08-26T13:21:22.583Z,24.50
2022-08-26T13:23:50.329Z,24.50
2022-08-26T13:26:18.739Z,24.60
2022-08-26T13:28:45.822Z,24.60
2022-08-26T13:31:29.608Z,24.60
2022-08-26T13:33:56.954Z,24.60
2022-08-26T13:36:24.142Z,24.60
2022-08-26T13:38:52.033Z,24.70
2022-08-26T13:41:29.313Z,24.70
2022-08-26T13:43:56.838Z,25.00
2022-08-26T13:46:25.951Z,24.90
2022-08-26T13:48:52.787Z,24.80
2022-08-26T13:51:19.681Z,24.80
2022-08-26T13:53:46.463Z,24.90
2022-08-26T13:56:13.261Z,24.80
2022-08-26T13:58:41.371Z,24.70
2022-08-26T14:01:08.577Z,24.70
2022-08-26T14:03:35.964Z,24.80
2022-08-26T14:06:02.811Z,24.70
2022-08-26T14:08:30.014Z,24.70
2022-08-26T14:10:56.758Z,24.70
2022-08-26T14:13:23.492Z,24.70
2022-08-26T14:15:52.774Z,24.80
2022-08-26T14:18:25.529Z,24.80
2022-08-26T14:20:55.111Z,24.70
2022-08-26T14:23:22.066Z,24.80
2022-08-26T14:25:48.989Z,25.00
2022-08-26T14:28:15.912Z,25.00
2022-08-26T14:30:44.109Z,24.90
2022-08-26T14:33:14.162Z,24.90
2022-08-26T14:35:41.431Z,24.80
2022-08-26T14:38:14.829Z,24.80
2022-08-26T14:40:41.730Z,24.80
2022-08-26T14:43:08.480Z,24.80
2022-08-26T14:45:37.828Z,24.80
2022-08-26T14:48:04.685Z,24.80
2022-08-26T14:50:32.922Z,24.80
2022-08-26T14:52:59.945Z,24.80
2022-08-26T14:55:27.305Z,24.90
2022-08-26T14:57:54.117Z,24.80
2022-08-26T15:00:21.045Z,24.80
2022-08-26T15:02:48.032Z,24.90
2022-08-26T15:05:15.105Z,24.90
2022-08-26T15:07:43.308Z,24.90
2022-08-26T15:10:11.906Z,24.90
2022-08-26T15:12:38.706Z,24.90
2022-08-26T15:15:07.443Z,24.90
2022-08-26T15:17:34.792Z,25.00
2022-08-26T15:20:02.056Z,25.00
2022-08-26T15:22:29.917Z,25.10
2022-08-26T15:24:58.551Z,25.10
2022-08-26T15:27:25.349Z,25.00
2022-08-26T15:29:52.071Z,25.10
2022-08-26T15:32:19.104Z,25.10
2022-08-26T15:34:45.910Z,25.10
2022-08-26T15:37:12.702Z,25.10
2022-08-26T15:39:39.457Z,25.10
2022-08-26T15:42:07.784Z,25.10
2022-08-26T15:44:34.612Z,25.20
2022-08-26T15:47:01.398Z,25.20
2022-08-26T15:49:28.343Z,25.20
2022-08-26T15:51:55.194Z,25.30
2022-08-26T15:54:23.410Z,25.30
2022-08-26T15:56:50.784Z,25.30
2022-08-26T15:59:20.209Z,25.30
2022-08-26T16:01:47.191Z,25.30
2022-08-26T16:04:13.998Z,25.30
2022-08-26T16:06:41.887Z,25.30
2022-08-26T16:09:09.366Z,25.30
2022-08-26T16:11:36.160Z,25.30
2022-08-26T16:14:02.909Z,25.30
2022-08-26T16:16:31.093Z,25.40
2022-08-26T16:18:57.963Z,25.40
2022-08-26T16:21:26.565Z,25.40
2022-08-26T16:23:53.294Z,25.40
2022-08-26T16:26:23.144Z,25.30
2022-08-26T16:28:49.996Z,25.40
2022-08-26T16:31:17.268Z,25.30
2022-08-26T16:33:45.499Z,25.30
2022-08-26T16:36:12.994Z,25.40
2022-08-26T16:38:40.230Z,25.30
2022-08-26T16:41:07.968Z,25.30
2022-08-26T16:43:35.274Z,25.30
2022-08-26T16:46:04.631Z,25.20
2022-08-26T16:48:31.480Z,25.20
2022-08-26T16:50:59.572Z,25.30
2022-08-26T16:53:26.377Z,25.30
2022-08-26T16:55:53.096Z,25.20
2022-08-26T16:58:21.973Z,25.20
2022-08-26T17:00:49.543Z,25.20
2022-08-26T17:03:16.625Z,25.20
2022-08-26T17:05:43.400Z,25.20
2022-08-26T17:08:11.936Z,25.20
2022-08-26T17:10:39.080Z,25.20
2022-08-26T17:13:05.985Z,25.20
2022-08-26T17:15:32.836Z,25.20
2022-08-26T17:17:59.698Z,25.20
2022-08-26T17:20:26.736Z,25.20
2022-08-26T17:22:55.033Z,25.20
2022-08-26T17:25:25.427Z,25.10
2022-08-26T17:27:53.060Z,25.10
2022-08-26T17:30:20.796Z,25.10
2022-08-26T17:32:47.554Z,25.30
2022-08-26T17:35:15.593Z,25.20
2022-08-26T17:37:42.342Z,25.20
2022-08-26T17:40:13.936Z,25.10
2022-08-26T17:42:42.330Z,25.10
2022-08-26T17:45:10.217Z,25.30
2022-08-26T17:47:37.572Z,25.50
2022-08-26T17:50:06.034Z,25.50
2022-08-26T17:52:32.777Z,25.40
2022-08-26T17:54:59.541Z,25.40
2022-08-26T17:57:26.990Z,25.30
2022-08-26T17:59:55.140Z,25.30
2022-08-26T18:02:22.365Z,25.20
2022-08-26T18:04:49.231Z,25.20
2022-08-26T18:07:17.022Z,25.10
2022-08-26T18:09:43.886Z,25.00
2022-08-26T18:12:11.730Z,25.00
2022-08-26T18:14:38.762Z,24.90
2022-08-26T18:17:06.861Z,24.90
2022-08-26T18:19:33.683Z,24.90
2022-08-26T18:22:00.459Z,24.80
2022-08-26T18:24:27.313Z,24.80
2022-08-26T18:26:54.076Z,24.80
2022-08-26T18:29:20.940Z,24.70
2022-08-26T18:31:47.829Z,24.70
2022-08-26T18:34:15.916Z,24.60
2022-08-26T18:36:43.296Z,24.60
2022-08-26T18:39:11.574Z,24.50
2022-08-26T18:41:41.498Z,24.50
2022-08-26T18:44:12.940Z,24.50
2022-08-26T18:46:41.061Z,24.50
2022-08-26T18:49:08.116Z,24.40
2022-08-26T18:51:36.227Z,24.40
2022-08-26T18:54:05.304Z,24.40
2022-08-26T18:56:32.700Z,24.40
2022-08-26T18:58:59.899Z,24.30
2022-08-26T19:01:28.394Z,24.30
2022-08-26T19:03:55.372Z,24.30
2022-08-26T19:06:23.346Z,24.20
2022-08-26T19:08:51.552Z,24.20
2022-08-26T19:11:31.528Z,24.20
2022-08-26T19:14:00.062Z,24.20
2022-08-26T19:16:27.908Z,24.20
2022-08-26T19:18:55.635Z,24.20
2022-08-26T19:21:23.090Z,24.20
2022-08-26T19:23:51.560Z,24.10
2022-08-26T19:26:18.349Z,24.10
2022-08-26T19:28:45.137Z,24.10
2022-08-26T19:31:12.852Z,24.00
2022-08-26T19:33:41.417Z,24.00
2022-08-26T19:36:12.666Z,24.00
2022-08-26T19:38:41.590Z,24.00
2022-08-26T19:41:12.171Z,24.00
2022-08-26T19:43:39.032Z,24.00
2022-08-26T19:46:12.237Z,23.90
2022-08-26T19:48:39.112Z,23.90
2022-08-26T19:51:06.245Z,23.90
2022-08-26T19:53:33.014Z,23.80
2022-08-26T19:55:59.745Z,23.80
2022-08-26T19:58:27.870Z,23.80
2022-08-26T20:00:54.699Z,23.80
2022-08-26T20:03:21.537Z,23.80
2022-08-26T20:05:48.266Z,23.80
2022-08-26T20:08:22.136Z,23.70
2022-08-26T20:10:50.021Z,23.80
2022-08-26T20:13:17.426Z,23.80
2022-08-26T20:15:45.544Z,23.70
2022-08-26T20:18:12.279Z,23.70
2022-08-26T20:20:38.998Z,23.70
2022-08-26T20:23:05.807Z,23.80
2022-08-26T20:25:33.304Z,23.70
2022-08-26T20:28:00.639Z,23.70
2022-08-26T20:30:27.547Z,23.70
2022-08-26T20:32:56.014Z,23.70
2022-08-26T20:35:22.825Z,23.60
2022-08-26T20:37:49.948Z,23.70
2022-08-26T20:40:16.782Z,23.60
2022-08-26T20:42:43.590Z,23.60
2022-08-26T20:45:11.011Z,23.60
2022-08-26T20:47:37.842Z,23.60
2022-08-26T20:50:06.849Z,23.60
2022-08-26T20:52:33.588Z,23.50
2022-08-26T20:55:00.340Z,23.50
2022-08-26T20:57:27.130Z,23.50
2022-08-26T20:59:53.879Z,23.50
2022-08-26T21:02:20.613Z,23.50
2022-08-26T21:04:47.487Z,23.50
2022-08-26T21:07:15.732Z,23.50
2022-08-26T21:09:44.510Z,23.50
2022-08-26T21:12:11.250Z,23.50
2022-08-26T21:14:38.056Z,23.40
2022-08-26T21:17:04.879Z,23.40
2022-08-26T21:19:31.606Z,23.40
2022-08-26T21:21:58.351Z,23.40
2022-08-26T21:24:26.489Z,23.40
2022-08-26T21:26:53.373Z,23.40
2022-08-26T21:29:20.112Z,23.40
2022-08-26T21:31:47.168Z,23.30
2022-08-26T21:34:14.570Z,23.40
2022-08-26T21:36:41.358Z,23.30
2022-08-26T21:39:11.507Z,23.20
2022-08-26T21:41:41.239Z,23.20
2022-08-26T21:44:08.856Z,23.20
2022-08-26T21:46:35.814Z,23.20
2022-08-26T21:49:05.253Z,23.10
2022-08-26T21:51:35.013Z,23.20
2022-08-26T21:54:06.543Z,23.10
2022-08-26T21:56:39.319Z,23.10
2022-08-26T21:59:08.081Z,23.10
2022-08-26T22:01:35.884Z,23.10
2022-08-26T22:04:07.300Z,23.10
2022-08-26T22:06:39.244Z,23.10
2022-08-26T22:09:06.028Z,23.10
2022-08-26T22:11:32.829Z,23.10
2022-08-26T22:13:59.657Z,23.10
2022-08-26T22:16:27.954Z,23.10
2022-08-26T22:18:54.816Z,23.00
2022-08-26T22:21:23.694Z,23.00
2022-08-26T22:23:51.230Z,23.00
2022-08-26T22:26:26.012Z,23.00
2022-08-26T22:28:58.807Z,23.00
2022-08-26T22:31:37.875Z,23.00
2022-08-26T22:34:06.772Z,23.00
2022-08-26T22:36:33.547Z,23.00
2022-08-26T22:39:01.219Z,22.90
2022-08-26T22:41:27.973Z,22.90
2022-08-26T22:43:54.692Z,22.90
2022-08-26T22:46:23.970Z,22.90
2022-08-26T22:48:54.027Z,22.90
2022-08-26T22:51:21.727Z,22.90
2022-08-26T22:53:48.522Z,22.90
2022-08-26T22:56:15.456Z,22.80
2022-08-26T22:58:42.194Z,22.80
2022-08-26T23:01:09.103Z,22.90
2022-08-26T23:03:36.059Z,22.80
2022-08-26T23:06:06.908Z,22.80
2022-08-26T23:08:33.659Z,22.80
2022-08-26T23:11:00.420Z,22.70
2022-08-26T23:13:27.317Z,22.70
2022-08-26T23:16:00.940Z,22.70
2022-08-26T23:18:27.781Z,22.70
2022-08-26T23:20:54.686Z,22.70
2022-08-26T23:23:22.822Z,22.70
2022-08-26T23:25:49.826Z,22.70
2022-08-26T23:28:16.966Z,22.60
2022-08-26T23:30:43.708Z,22.70
2022-08-26T23:33:10.565Z,22.60
2022-08-26T23:35:37.344Z,22.60
2022-08-26T23:38:06.727Z,22.60
2022-08-26T23:40:38.232Z,22.60
2022-08-26T23:43:07.571Z,22.50
2022-08-26T23:45:35.402Z,22.50
2022-08-26T23:48:02.421Z,22.50
2022-08-26T23:50:30.991Z,22.50
2022-08-26T23:52:57.745Z,22.40
2022-08-26T23:55:24.515Z,22.40
2022-08-26T23:57:52.723Z,22.40
